sensor_id;sensor_type;location;lat;lon;timestamp;pressure;altitude;pressure_sealevel;temperature;humidity
10700;BME280;5401;41.986;21.452;2023-05-11T00:00:09;98498.09;;;13.45;87.61
10700;BME280;5401;41.986;21.452;2023-05-11T00:02:37;98488.63;;;13.42;87.07
10700;BME280;5401;41.986;21.452;2023-05-11T00:05:06;98496.09;;;13.40;87.81
10700;BME280;5401;41.986;21.452;2023-05-11T00:07:35;98494.47;;;13.39;88.37
10700;BME280;5401;41.986;21.452;2023-05-11T00:10:04;98476.19;;;13.30;87.98
10700;BME280;5401;41.986;21.452;2023-05-11T00:12:31;98488.50;;;13.37;87.43
10700;BME280;5401;41.986;21.452;2023-05-11T00:15:02;98474.88;;;13.21;88.39
10700;BME280;5401;41.986;21.452;2023-05-11T00:17:29;98489.16;;;13.33;87.70
10700;BME280;5401;41.986;21.452;2023-05-11T00:19:58;98485.44;;;13.34;88.75
10700;BME280;5401;41.986;21.452;2023-05-11T00:22:26;98469.25;;;13.22;88.40
10700;BME280;5401;41.986;21.452;2023-05-11T00:24:55;98470.31;;;13.21;88.35
10700;BME280;5401;41.986;21.452;2023-05-11T00:27:25;98488.22;;;13.27;88.15
10700;BME280;5401;41.986;21.452;2023-05-11T00:29:53;98461.13;;;13.11;88.42
10700;BME280;5401;41.986;21.452;2023-05-11T00:32:22;98477.59;;;13.15;88.33
10700;BME280;5401;41.986;21.452;2023-05-11T00:34:49;98479.56;;;13.25;87.96
10700;BME280;5401;41.986;21.452;2023-05-11T00:37:17;98485.75;;;13.26;87.95
10700;BME280;5401;41.986;21.452;2023-05-11T00:39:45;98486.81;;;13.25;89.15
10700;BME280;5401;41.986;21.452;2023-05-11T00:42:16;98479.41;;;13.20;88.00
10700;BME280;5401;41.986;21.452;2023-05-11T00:44:44;98485.84;;;13.19;88.10
10700;BME280;5401;41.986;21.452;2023-05-11T00:47:13;98487.03;;;13.23;88.14
10700;BME280;5401;41.986;21.452;2023-05-11T00:49:41;98486.66;;;13.20;88.21
10700;BME280;5401;41.986;21.452;2023-05-11T00:52:09;98486.66;;;13.20;88.99
10700;BME280;5401;41.986;21.452;2023-05-11T00:54:38;98467.69;;;13.15;88.77
10700;BME280;5401;41.986;21.452;2023-05-11T00:57:07;98481.13;;;13.15;89.48
10700;BME280;5401;41.986;21.452;2023-05-11T00:59:36;98469.78;;;13.13;88.51
10700;BME280;5401;41.986;21.452;2023-05-11T01:02:04;98474.03;;;13.20;88.33
10700;BME280;5401;41.986;21.452;2023-05-11T01:04:33;98478.38;;;13.21;88.58
10700;BME280;5401;41.986;21.452;2023-05-11T01:07:09;98476.28;;;13.23;89.33
10700;BME280;5401;41.986;21.452;2023-05-11T01:09:45;98480.47;;;13.19;89.25
10700;BME280;5401;41.986;21.452;2023-05-11T01:12:24;98469.41;;;13.10;89.02
10700;BME280;5401;41.986;21.452;2023-05-11T01:14:59;98474.31;;;13.13;89.01
10700;BME280;5401;41.986;21.452;2023-05-11T01:17:35;98489.34;;;13.20;89.55
10700;BME280;5401;41.986;21.452;2023-05-11T01:20:07;98473.44;;;13.18;89.87
10700;BME280;5401;41.986;21.452;2023-05-11T01:22:47;98476.72;;;13.20;88.92
10700;BME280;5401;41.986;21.452;2023-05-11T01:25:30;98478.59;;;13.20;89.23
10700;BME280;5401;41.986;21.452;2023-05-11T01:28:15;98474.28;;;13.19;89.85
10700;BME280;5401;41.986;21.452;2023-05-11T01:30:50;98479.66;;;13.19;88.77
10700;BME280;5401;41.986;21.452;2023-05-11T01:33:23;98474.28;;;13.19;89.86
10700;BME280;5401;41.986;21.452;2023-05-11T01:35:55;98480.66;;;13.18;88.72
10700;BME280;5401;41.986;21.452;2023-05-11T01:38:31;98468.94;;;13.13;88.55
10700;BME280;5401;41.986;21.452;2023-05-11T01:41:03;98412.75;;;12.76;89.73
10700;BME280;5401;41.986;21.452;2023-05-11T01:43:35;98481.56;;;13.12;89.47
10700;BME280;5401;41.986;21.452;2023-05-11T01:46:08;98476.41;;;13.11;90.14
10700;BME280;5401;41.986;21.452;2023-05-11T01:48:38;98474.78;;;13.10;89.61
10700;BME280;5401;41.986;21.452;2023-05-11T01:51:08;98478.50;;;13.09;90.27
10700;BME280;5401;41.986;21.452;2023-05-11T01:53:37;98479.56;;;13.08;89.39
10700;BME280;5401;41.986;21.452;2023-05-11T01:56:06;98475.47;;;13.05;89.18
10700;BME280;5401;41.986;21.452;2023-05-11T01:58:37;98474.19;;;13.08;90.71
10700;BME280;5401;41.986;21.452;2023-05-11T02:01:08;98473.81;;;13.04;90.81
10700;BME280;5401;41.986;21.452;2023-05-11T02:03:38;98471.38;;;13.03;90.45
10700;BME280;5401;41.986;21.452;2023-05-11T02:06:08;98475.00;;;13.08;90.10
10700;BME280;5401;41.986;21.452;2023-05-11T02:08:38;98469.19;;;13.11;90.77
10700;BME280;5401;41.986;21.452;2023-05-11T02:11:08;98467.53;;;13.10;89.96
10700;BME280;5401;41.986;21.452;2023-05-11T02:13:40;98471.03;;;13.11;89.61
10700;BME280;5401;41.986;21.452;2023-05-11T02:16:11;98473.50;;;13.12;89.80
10700;BME280;5401;41.986;21.452;2023-05-11T02:18:40;98459.47;;;13.10;89.94
10700;BME280;5401;41.986;21.452;2023-05-11T02:21:08;98463.34;;;13.14;90.25
10700;BME280;5401;41.986;21.452;2023-05-11T02:23:38;98469.31;;;13.16;90.79
10700;BME280;5401;41.986;21.452;2023-05-11T02:26:07;98460.44;;;13.16;91.24
10700;BME280;5401;41.986;21.452;2023-05-11T02:28:35;98471.19;;;13.16;89.99
10700;BME280;5401;41.986;21.452;2023-05-11T02:31:08;98467.22;;;13.18;91.45
10700;BME280;5401;41.986;21.452;2023-05-11T02:33:45;98470.59;;;13.14;91.40
10700;BME280;5401;41.986;21.452;2023-05-11T02:36:16;98464.03;;;13.10;90.77
10700;BME280;5401;41.986;21.452;2023-05-11T02:38:47;98460.97;;;13.06;91.31
10700;BME280;5401;41.986;21.452;2023-05-11T02:41:20;98469.13;;;13.00;90.30
10700;BME280;5401;41.986;21.452;2023-05-11T02:43:53;98452.25;;;12.93;91.26
10700;BME280;5401;41.986;21.452;2023-05-11T02:46:25;98458.22;;;12.95;91.65
10700;BME280;5401;41.986;21.452;2023-05-11T02:48:58;98457.84;;;12.91;91.99
10700;BME280;5401;41.986;21.452;2023-05-11T02:51:31;98467.19;;;12.89;91.26
10700;BME280;5401;41.986;21.452;2023-05-11T02:54:00;98457.34;;;12.83;91.37
10700;BME280;5401;41.986;21.452;2023-05-11T02:56:35;98451.03;;;12.71;91.31
10700;BME280;5401;41.986;21.452;2023-05-11T02:59:02;98471.25;;;12.74;92.77
10700;BME280;5401;41.986;21.452;2023-05-11T03:01:30;98458.69;;;12.68;92.69
10700;BME280;5401;41.986;21.452;2023-05-11T03:04:02;98465.72;;;12.69;91.92
10700;BME280;5401;41.986;21.452;2023-05-11T03:06:30;98476.22;;;12.70;92.77
10700;BME280;5401;41.986;21.452;2023-05-11T03:08:59;98465.28;;;12.72;93.49
10700;BME280;5401;41.986;21.452;2023-05-11T03:11:27;98471.91;;;12.69;93.55
10700;BME280;5401;41.986;21.452;2023-05-11T03:13:55;98470.50;;;12.67;92.55
10700;BME280;5401;41.986;21.452;2023-05-11T03:16:23;98413.91;;;12.26;92.79
10700;BME280;5401;41.986;21.452;2023-05-11T03:18:52;98465.41;;;12.59;93.70
10700;BME280;5401;41.986;21.452;2023-05-11T03:21:23;98472.88;;;12.57;94.11
10700;BME280;5401;41.986;21.452;2023-05-11T03:23:51;98461.44;;;12.44;93.58
10700;BME280;5401;41.986;21.452;2023-05-11T03:26:20;98475.84;;;12.49;94.28
10700;BME280;5401;41.986;21.452;2023-05-11T03:28:48;98481.63;;;12.46;94.38
10700;BME280;5401;41.986;21.452;2023-05-11T03:31:17;98487.25;;;12.45;94.83
10700;BME280;5401;41.986;21.452;2023-05-11T03:33:45;98476.34;;;12.40;95.07
10700;BME280;5401;41.986;21.452;2023-05-11T03:36:13;98475.38;;;12.34;94.88
10700;BME280;5401;41.986;21.452;2023-05-11T03:38:44;98475.59;;;12.33;94.93
10700;BME280;5401;41.986;21.452;2023-05-11T03:41:14;98479.91;;;12.34;95.15
10700;BME280;5401;41.986;21.452;2023-05-11T03:43:44;98488.19;;;12.32;95.42
10700;BME280;5401;41.986;21.452;2023-05-11T03:46:18;98473.13;;;12.31;96.03
10700;BME280;5401;41.986;21.452;2023-05-11T03:48:47;98469.44;;;12.26;96.44
10700;BME280;5401;41.986;21.452;2023-05-11T03:51:15;98492.56;;;12.27;95.57
10700;BME280;5401;41.986;21.452;2023-05-11T03:53:44;98478.28;;;12.33;96.32
10700;BME280;5401;41.986;21.452;2023-05-11T03:56:12;98485.88;;;12.36;95.71
10700;BME280;5401;41.986;21.452;2023-05-11T03:58:40;98480.78;;;12.28;95.99
10700;BME280;5401;41.986;21.452;2023-05-11T04:01:09;98497.06;;;12.33;96.83
10700;BME280;5401;41.986;21.452;2023-05-11T04:03:46;98489.22;;;12.31;96.76
10700;BME280;5401;41.986;21.452;2023-05-11T04:06:15;98485.72;;;12.31;96.15
10700;BME280;5401;41.986;21.452;2023-05-11T04:08:44;98494.97;;;12.35;97.08
10700;BME280;5401;41.986;21.452;2023-05-11T04:11:12;98498.69;;;12.34;97.06
10700;BME280;5401;41.986;21.452;2023-05-11T04:13:39;98494.59;;;12.31;96.13
10700;BME280;5401;41.986;21.452;2023-05-11T04:16:07;98477.56;;;12.19;96.52
10700;BME280;5401;41.986;21.452;2023-05-11T04:18:34;98483.72;;;12.26;97.45
10700;BME280;5401;41.986;21.452;2023-05-11T04:21:02;98486.31;;;12.33;96.70
10700;BME280;5401;41.986;21.452;2023-05-11T04:23:31;98490.81;;;12.39;96.58
10700;BME280;5401;41.986;21.452;2023-05-11T04:26:00;98486.25;;;12.39;97.36
10700;BME280;5401;41.986;21.452;2023-05-11T04:28:28;98487.94;;;12.40;97.23
10700;BME280;5401;41.986;21.452;2023-05-11T04:30:56;98494.91;;;12.41;96.97
10700;BME280;5401;41.986;21.452;2023-05-11T04:33:24;98500.44;;;12.46;96.25
10700;BME280;5401;41.986;21.452;2023-05-11T04:35:52;98504.78;;;12.47;96.63
10700;BME280;5401;41.986;21.452;2023-05-11T04:38:21;98498.59;;;12.47;96.27
10700;BME280;5401;41.986;21.452;2023-05-11T04:40:49;98508.28;;;12.47;97.21
10700;BME280;5401;41.986;21.452;2023-05-11T04:43:18;98503.97;;;12.47;97.10
10700;BME280;5401;41.986;21.452;2023-05-11T04:45:48;98499.75;;;12.33;96.69
10700;BME280;5401;41.986;21.452;2023-05-11T04:48:16;98503.84;;;12.35;96.50
10700;BME280;5401;41.986;21.452;2023-05-11T04:50:44;98513.94;;;12.40;97.07
10700;BME280;5401;41.986;21.452;2023-05-11T04:53:11;98519.75;;;12.37;97.58
10700;BME280;5401;41.986;21.452;2023-05-11T04:55:39;98536.41;;;12.45;97.52
10700;BME280;5401;41.986;21.452;2023-05-11T04:58:07;98533.13;;;12.43;97.35
10700;BME280;5401;41.986;21.452;2023-05-11T05:00:36;98527.59;;;12.38;97.29
10700;BME280;5401;41.986;21.452;2023-05-11T05:03:03;98527.22;;;12.35;97.25
10700;BME280;5401;41.986;21.452;2023-05-11T05:05:32;98509.34;;;12.22;97.50
10700;BME280;5401;41.986;21.452;2023-05-11T05:07:59;98532.31;;;12.43;96.83
10700;BME280;5401;41.986;21.452;2023-05-11T05:10:27;98541.97;;;12.44;97.67
10700;BME280;5401;41.986;21.452;2023-05-11T05:12:55;98527.59;;;12.38;97.74
10700;BME280;5401;41.986;21.452;2023-05-11T05:15:23;98529.38;;;12.44;96.56
10700;BME280;5401;41.986;21.452;2023-05-11T05:17:52;98526.47;;;12.46;96.87
10700;BME280;5401;41.986;21.452;2023-05-11T05:20:20;98527.47;;;12.51;97.46
10700;BME280;5401;41.986;21.452;2023-05-11T05:22:48;98535.69;;;12.56;96.51
10700;BME280;5401;41.986;21.452;2023-05-11T05:25:15;98531.38;;;12.55;96.90
10700;BME280;5401;41.986;21.452;2023-05-11T05:27:43;98507.09;;;12.44;97.26
10700;BME280;5401;41.986;21.452;2023-05-11T05:30:11;98548.00;;;12.63;97.24
10700;BME280;5401;41.986;21.452;2023-05-11T05:32:39;98540.16;;;12.62;97.13
10700;BME280;5401;41.986;21.452;2023-05-11T05:35:08;98537.72;;;12.60;96.15
10700;BME280;5401;41.986;21.452;2023-05-11T05:37:36;98539.94;;;12.63;96.59
10700;BME280;5401;41.986;21.452;2023-05-11T05:40:05;98536.66;;;12.61;96.24
10700;BME280;5401;41.986;21.452;2023-05-11T05:42:33;98549.28;;;12.61;96.35
10700;BME280;5401;41.986;21.452;2023-05-11T05:45:00;98526.25;;;12.47;96.42
10700;BME280;5401;41.986;21.452;2023-05-11T05:47:28;98541.44;;;12.59;97.51
10700;BME280;5401;41.986;21.452;2023-05-11T05:49:55;98528.88;;;12.53;96.28
10700;BME280;5401;41.986;21.452;2023-05-11T05:52:24;98530.16;;;12.51;96.65
10700;BME280;5401;41.986;21.452;2023-05-11T05:54:52;98527.91;;;12.48;97.36
10700;BME280;5401;41.986;21.452;2023-05-11T05:57:20;98543.53;;;12.57;97.09
10700;BME280;5401;41.986;21.452;2023-05-11T05:59:47;98542.72;;;12.57;97.04
10700;BME280;5401;41.986;21.452;2023-05-11T06:02:17;98544.56;;;12.56;96.66
10700;BME280;5401;41.986;21.452;2023-05-11T06:04:48;98549.50;;;12.59;96.85
10700;BME280;5401;41.986;21.452;2023-05-11T06:07:17;98555.25;;;12.63;96.74
10700;BME280;5401;41.986;21.452;2023-05-11T06:09:46;98539.22;;;12.56;96.90
10700;BME280;5401;41.986;21.452;2023-05-11T06:12:14;98556.72;;;12.59;96.49
10700;BME280;5401;41.986;21.452;2023-05-11T06:14:42;98570.91;;;12.66;96.84
10700;BME280;5401;41.986;21.452;2023-05-11T06:17:12;98556.66;;;12.65;96.70
10700;BME280;5401;41.986;21.452;2023-05-11T06:19:40;98557.69;;;12.64;96.80
10700;BME280;5401;41.986;21.452;2023-05-11T06:22:08;98557.28;;;12.67;95.87
10700;BME280;5401;41.986;21.452;2023-05-11T06:24:35;98554.97;;;12.71;96.88
10700;BME280;5401;41.986;21.452;2023-05-11T06:27:04;98539.94;;;12.63;97.16
10700;BME280;5401;41.986;21.452;2023-05-11T06:29:33;98562.53;;;12.80;96.38
10700;BME280;5401;41.986;21.452;2023-05-11T06:32:00;98543.31;;;12.83;95.64
10700;BME280;5401;41.986;21.452;2023-05-11T06:34:28;98532.00;;;12.75;96.56
10700;BME280;5401;41.986;21.452;2023-05-11T06:37:01;98531.81;;;12.70;96.66
10700;BME280;5401;41.986;21.452;2023-05-11T06:39:29;98540.66;;;12.77;95.30
10700;BME280;5401;41.986;21.452;2023-05-11T06:41:56;98551.44;;;12.94;95.67
10700;BME280;5401;41.986;21.452;2023-05-11T06:44:26;98542.13;;;12.97;96.40
10700;BME280;5401;41.986;21.452;2023-05-11T06:46:53;98545.34;;;13.05;94.95
10700;BME280;5401;41.986;21.452;2023-05-11T06:49:27;98549.59;;;13.13;95.05
10700;BME280;5401;41.986;21.452;2023-05-11T06:51:55;98561.03;;;13.26;95.42
10700;BME280;5401;41.986;21.452;2023-05-11T06:54:22;98549.09;;;13.22;94.49
10700;BME280;5401;41.986;21.452;2023-05-11T06:56:50;98569.84;;;13.33;94.64
10700;BME280;5401;41.986;21.452;2023-05-11T06:59:18;98558.34;;;13.26;95.45
10700;BME280;5401;41.986;21.452;2023-05-11T07:01:50;98527.34;;;13.06;94.14
10700;BME280;5401;41.986;21.452;2023-05-11T07:04:21;98565.44;;;13.20;94.92
10700;BME280;5401;41.986;21.452;2023-05-11T07:06:50;98568.59;;;13.35;93.96
10700;BME280;5401;41.986;21.452;2023-05-11T07:09:21;98566.50;;;13.37;93.95
10700;BME280;5401;41.986;21.452;2023-05-11T07:11:49;98554.75;;;13.32;94.21
10700;BME280;5401;41.986;21.452;2023-05-11T07:14:20;98577.16;;;13.44;94.56
10700;BME280;5401;41.986;21.452;2023-05-11T07:16:47;98549.59;;;13.30;94.66
10700;BME280;5401;41.986;21.452;2023-05-11T07:19:19;98567.81;;;13.46;94.07
10700;BME280;5401;41.986;21.452;2023-05-11T07:21:48;98559.16;;;13.44;93.62
10700;BME280;5401;41.986;21.452;2023-05-11T07:24:17;98556.59;;;13.49;93.44
10700;BME280;5401;41.986;21.452;2023-05-11T07:26:45;98564.75;;;13.60;93.77
10700;BME280;5401;41.986;21.452;2023-05-11T07:29:14;98567.94;;;13.69;92.98
10700;BME280;5401;41.986;21.452;2023-05-11T07:31:42;98565.50;;;13.67;93.08
10700;BME280;5401;41.986;21.452;2023-05-11T07:34:10;98553.19;;;13.71;93.71
10700;BME280;5401;41.986;21.452;2023-05-11T07:36:40;98564.03;;;13.83;92.45
10700;BME280;5401;41.986;21.452;2023-05-11T07:39:14;98567.41;;;13.78;91.99
10700;BME280;5401;41.986;21.452;2023-05-11T07:41:42;98559.34;;;13.78;92.34
10700;BME280;5401;41.986;21.452;2023-05-11T07:44:16;98566.72;;;13.83;92.91
10700;BME280;5401;41.986;21.452;2023-05-11T07:46:45;98519.22;;;13.59;93.22
10700;BME280;5401;41.986;21.452;2023-05-11T07:49:13;98565.75;;;13.77;93.24
10700;BME280;5401;41.986;21.452;2023-05-11T07:51:43;98532.03;;;13.63;92.52
10700;BME280;5401;41.986;21.452;2023-05-11T07:54:12;98575.88;;;13.93;92.21
10700;BME280;5401;41.986;21.452;2023-05-11T07:56:40;98572.97;;;13.94;92.12
10700;BME280;5401;41.986;21.452;2023-05-11T07:59:08;98572.50;;;13.97;92.25
10700;BME280;5401;41.986;21.452;2023-05-11T08:01:36;98571.91;;;13.95;91.91
10700;BME280;5401;41.986;21.452;2023-05-11T08:04:07;98571.91;;;13.95;92.10
10700;BME280;5401;41.986;21.452;2023-05-11T08:06:36;98560.56;;;13.93;92.83
10700;BME280;5401;41.986;21.452;2023-05-11T08:09:11;98533.34;;;13.72;92.35
10700;BME280;5401;41.986;21.452;2023-05-11T08:11:41;98535.53;;;13.64;92.00
10700;BME280;5401;41.986;21.452;2023-05-11T08:14:10;98569.03;;;13.79;91.54
10700;BME280;5401;41.986;21.452;2023-05-11T08:16:39;98571.97;;;13.78;91.85
10700;BME280;5401;41.986;21.452;2023-05-11T08:19:08;98563.63;;;13.68;92.58
10700;BME280;5401;41.986;21.452;2023-05-11T08:21:36;98567.03;;;13.75;92.94
10700;BME280;5401;41.986;21.452;2023-05-11T08:24:07;98563.91;;;13.78;91.87
10700;BME280;5401;41.986;21.452;2023-05-11T08:26:34;98554.03;;;13.72;92.73
10700;BME280;5401;41.986;21.452;2023-05-11T08:29:03;98552.97;;;13.73;92.12
10700;BME280;5401;41.986;21.452;2023-05-11T08:31:33;98558.84;;;13.70;92.31
10700;BME280;5401;41.986;21.452;2023-05-11T08:34:01;98556.44;;;13.80;92.24
10700;BME280;5401;41.986;21.452;2023-05-11T08:36:31;98552.06;;;13.79;91.76
10700;BME280;5401;41.986;21.452;2023-05-11T08:39:02;98562.63;;;13.80;91.61
10700;BME280;5401;41.986;21.452;2023-05-11T08:41:36;98566.53;;;13.95;91.46
10700;BME280;5401;41.986;21.452;2023-05-11T08:44:05;98566.09;;;13.98;92.28
10700;BME280;5401;41.986;21.452;2023-05-11T08:46:35;98560.72;;;13.98;91.71
10700;BME280;5401;41.986;21.452;2023-05-11T08:49:10;98564.63;;;14.02;91.78
10700;BME280;5401;41.986;21.452;2023-05-11T08:51:44;98522.75;;;13.89;90.99
10700;BME280;5401;41.986;21.452;2023-05-11T08:54:15;98562.63;;;14.09;91.47
10700;BME280;5401;41.986;21.452;2023-05-11T08:56:48;98552.47;;;14.11;90.78
10700;BME280;5401;41.986;21.452;2023-05-11T08:59:19;98562.81;;;14.26;90.80
10700;BME280;5401;41.986;21.452;2023-05-11T09:01:48;98551.22;;;14.25;90.68
10700;BME280;5401;41.986;21.452;2023-05-11T09:04:19;98553.31;;;14.23;89.88
10700;BME280;5401;41.986;21.452;2023-05-11T09:06:49;98552.88;;;14.26;89.73
10700;BME280;5401;41.986;21.452;2023-05-11T09:09:18;98553.00;;;14.31;89.38
10700;BME280;5401;41.986;21.452;2023-05-11T09:11:52;98544.09;;;14.30;89.93
10700;BME280;5401;41.986;21.452;2023-05-11T09:14:25;98559.56;;;14.35;88.95
10700;BME280;5401;41.986;21.452;2023-05-11T09:16:55;98540.69;;;14.35;88.49
10700;BME280;5401;41.986;21.452;2023-05-11T09:19:24;98545.75;;;14.43;88.81
10700;BME280;5401;41.986;21.452;2023-05-11T09:21:55;98510.72;;;14.31;88.39
10700;BME280;5401;41.986;21.452;2023-05-11T09:24:24;98547.78;;;14.59;88.16
10700;BME280;5401;41.986;21.452;2023-05-11T09:27:08;98547.66;;;14.65;87.84
10700;BME280;5401;41.986;21.452;2023-05-11T09:29:40;98537.47;;;14.67;87.87
10700;BME280;5401;41.986;21.452;2023-05-11T09:32:10;98531.25;;;14.66;87.40
10700;BME280;5401;41.986;21.452;2023-05-11T09:34:50;98501.59;;;14.55;87.07
10700;BME280;5401;41.986;21.452;2023-05-11T09:37:25;98510.16;;;14.63;87.04
10700;BME280;5401;41.986;21.452;2023-05-11T09:40:01;98538.75;;;14.87;86.32
10700;BME280;5401;41.986;21.452;2023-05-11T09:42:36;98536.41;;;15.02;86.08
10700;BME280;5401;41.986;21.452;2023-05-11T09:45:07;98523.03;;;15.07;86.07
10700;BME280;5401;41.986;21.452;2023-05-11T09:47:41;98532.53;;;15.21;85.51
10700;BME280;5401;41.986;21.452;2023-05-11T09:50:19;98506.72;;;15.25;85.11
10700;BME280;5401;41.986;21.452;2023-05-11T09:52:52;98525.69;;;15.41;84.77
10700;BME280;5401;41.986;21.452;2023-05-11T09:55:24;98490.53;;;15.25;84.38
10700;BME280;5401;41.986;21.452;2023-05-11T09:58:00;98532.50;;;15.43;84.12
10700;BME280;5401;41.986;21.452;2023-05-11T10:00:31;98495.84;;;15.20;84.14
10700;BME280;5401;41.986;21.452;2023-05-11T10:03:00;98511.88;;;15.26;84.05
10700;BME280;5401;41.986;21.452;2023-05-11T10:05:30;98523.75;;;15.25;83.84
10700;BME280;5401;41.986;21.452;2023-05-11T10:08:01;98509.09;;;15.21;83.53
10700;BME280;5401;41.986;21.452;2023-05-11T10:10:34;98492.91;;;15.21;83.34
10700;BME280;5401;41.986;21.452;2023-05-11T10:13:05;98512.25;;;15.30;83.56
10700;BME280;5401;41.986;21.452;2023-05-11T10:15:33;98526.16;;;15.38;83.21
10700;BME280;5401;41.986;21.452;2023-05-11T10:18:02;98515.38;;;15.38;83.06
10700;BME280;5401;41.986;21.452;2023-05-11T10:20:34;98499.78;;;15.29;82.87
10700;BME280;5401;41.986;21.452;2023-05-11T10:23:02;98510.22;;;15.36;82.74
10700;BME280;5401;41.986;21.452;2023-05-11T10:25:42;98493.56;;;15.39;82.79
10700;BME280;5401;41.986;21.452;2023-05-11T10:28:15;98488.06;;;15.34;82.14
10700;BME280;5401;41.986;21.452;2023-05-11T10:30:44;98500.72;;;15.45;82.37
10700;BME280;5401;41.986;21.452;2023-05-11T10:33:13;98503.84;;;15.54;82.30
10700;BME280;5401;41.986;21.452;2023-05-11T10:35:45;98493.63;;;15.56;82.19
10700;BME280;5401;41.986;21.452;2023-05-11T10:38:16;98506.00;;;15.68;82.08
10700;BME280;5401;41.986;21.452;2023-05-11T10:40:48;98500.13;;;15.71;81.77
10700;BME280;5401;41.986;21.452;2023-05-11T10:43:44;98479.50;;;15.65;81.27
10700;BME280;5401;41.986;21.452;2023-05-11T10:46:35;98495.16;;;15.79;81.95
10700;BME280;5401;41.986;21.452;2023-05-11T10:49:41;98502.41;;;15.90;81.36
10700;BME280;5401;41.986;21.452;2023-05-11T10:52:40;98491.03;;;15.88;81.75
10700;BME280;5401;41.986;21.452;2023-05-11T10:55:18;98467.84;;;15.76;81.30
10700;BME280;5401;41.986;21.452;2023-05-11T10:58:02;98487.59;;;15.93;81.42
10700;BME280;5401;41.986;21.452;2023-05-11T11:01:08;98462.38;;;15.87;81.65
10700;BME280;5401;41.986;21.452;2023-05-11T11:04:01;98492.66;;;16.05;81.43
10700;BME280;5401;41.986;21.452;2023-05-11T11:06:34;98484.16;;;16.13;81.31
10700;BME280;5401;41.986;21.452;2023-05-11T11:09:04;98467.66;;;16.10;80.62
10700;BME280;5401;41.986;21.452;2023-05-11T11:11:37;98499.22;;;16.37;81.08
10700;BME280;5401;41.986;21.452;2023-05-11T11:14:06;98475.47;;;16.23;80.91
10700;BME280;5401;41.986;21.452;2023-05-11T11:17:10;98480.53;;;16.36;80.77
10700;BME280;5401;41.986;21.452;2023-05-11T11:19:36;98501.69;;;16.55;80.54
10700;BME280;5401;41.986;21.452;2023-05-11T11:22:42;98500.94;;;16.59;79.80
10700;BME280;5401;41.986;21.452;2023-05-11T11:25:13;98474.25;;;16.46;80.34
10700;BME280;5401;41.986;21.452;2023-05-11T11:27:57;98491.50;;;16.62;80.01
10700;BME280;5401;41.986;21.452;2023-05-11T11:30:27;98485.03;;;16.63;79.58
10700;BME280;5401;41.986;21.452;2023-05-11T11:33:32;98504.44;;;16.76;79.58
10700;BME280;5401;41.986;21.452;2023-05-11T11:36:03;98497.72;;;16.78;79.08
10700;BME280;5401;41.986;21.452;2023-05-11T11:38:32;98490.75;;;16.82;79.14
10700;BME280;5401;41.986;21.452;2023-05-11T11:41:01;98486.75;;;16.85;78.62
10700;BME280;5401;41.986;21.452;2023-05-11T11:43:43;98468.78;;;16.79;78.48
10700;BME280;5401;41.986;21.452;2023-05-11T11:46:26;98485.16;;;16.89;78.87
10700;BME280;5401;41.986;21.452;2023-05-11T11:49:10;98491.16;;;16.91;78.38
10700;BME280;5401;41.986;21.452;2023-05-11T11:51:39;98483.41;;;16.99;78.43
10700;BME280;5401;41.986;21.452;2023-05-11T11:54:09;98474.59;;;16.87;77.98
10700;BME280;5401;41.986;21.452;2023-05-11T11:56:40;98477.50;;;17.02;78.27
10700;BME280;5401;41.986;21.452;2023-05-11T11:59:10;98463.03;;;16.92;78.15
10700;BME280;5401;41.986;21.452;2023-05-11T12:01:42;98464.81;;;17.03;77.71
10700;BME280;5401;41.986;21.452;2023-05-11T12:07:14;98483.41;;;17.15;77.37
10700;BME280;5401;41.986;21.452;2023-05-11T12:09:44;98463.41;;;17.00;78.03
10700;BME280;5401;41.986;21.452;2023-05-11T12:12:17;98477.63;;;17.12;77.62
10700;BME280;5401;41.986;21.452;2023-05-11T12:14:47;98481.16;;;17.13;77.95
10700;BME280;5401;41.986;21.452;2023-05-11T12:17:24;98485.03;;;17.16;77.87
10700;BME280;5401;41.986;21.452;2023-05-11T12:20:11;98486.94;;;17.16;77.91
10700;BME280;5401;41.986;21.452;2023-05-11T12:22:42;98469.47;;;17.07;76.98
10700;BME280;5401;41.986;21.452;2023-05-11T12:25:12;98453.91;;;16.98;77.81
10700;BME280;5401;41.986;21.452;2023-05-11T12:27:49;98463.50;;;17.05;77.45
10700;BME280;5401;41.986;21.452;2023-05-11T12:30:21;98466.50;;;17.09;77.13
10700;BME280;5401;41.986;21.452;2023-05-11T12:32:50;98446.03;;;16.96;76.96
10700;BME280;5401;41.986;21.452;2023-05-11T12:35:22;98471.81;;;17.20;77.16
10700;BME280;5401;41.986;21.452;2023-05-11T12:37:51;98462.09;;;17.19;77.40
10700;BME280;5401;41.986;21.452;2023-05-11T12:40:22;98470.31;;;17.29;76.86
10700;BME280;5401;41.986;21.452;2023-05-11T12:42:51;98427.88;;;17.13;76.84
10700;BME280;5401;41.986;21.452;2023-05-11T12:45:21;98446.47;;;17.26;77.15
10700;BME280;5401;41.986;21.452;2023-05-11T12:47:52;98424.94;;;17.14;76.35
10700;BME280;5401;41.986;21.452;2023-05-11T12:50:23;98448.59;;;17.24;76.19
10700;BME280;5401;41.986;21.452;2023-05-11T12:52:52;98408.16;;;16.96;76.37
10700;BME280;5401;41.986;21.452;2023-05-11T12:55:27;98436.91;;;17.18;75.67
10700;BME280;5401;41.986;21.452;2023-05-11T12:58:11;98416.41;;;17.06;76.08
10700;BME280;5401;41.986;21.452;2023-05-11T13:00:51;98448.03;;;17.22;76.28
10700;BME280;5401;41.986;21.452;2023-05-11T13:03:20;98425.91;;;17.09;76.26
10700;BME280;5401;41.986;21.452;2023-05-11T13:05:50;98441.88;;;17.26;75.82
10700;BME280;5401;41.986;21.452;2023-05-11T13:08:20;98411.34;;;17.10;75.90
10700;BME280;5401;41.986;21.452;2023-05-11T13:10:49;98443.53;;;17.27;75.43
10700;BME280;5401;41.986;21.452;2023-05-11T13:13:29;98398.13;;;16.92;75.30
10700;BME280;5401;41.986;21.452;2023-05-11T13:16:00;98422.16;;;17.10;74.85
10700;BME280;5401;41.986;21.452;2023-05-11T13:18:30;98434.34;;;17.12;74.70
10700;BME280;5401;41.986;21.452;2023-05-11T13:21:06;98437.41;;;17.15;75.48
10700;BME280;5401;41.986;21.452;2023-05-11T13:23:36;98435.06;;;17.03;75.00